sensor_id;sensor_type;location;lat;lon;timestamp;P1;durP1;ratioP1;P2;durP2;ratioP2
39982;SDS011;25670;44.782;10.356;2023-12-20T00:01:38;5.38;;;4.75;;
39982;SDS011;25670;44.782;10.356;2023-12-20T00:04:04;5.60;;;4.10;;
39982;SDS011;25670;44.782;10.356;2023-12-20T00:06:31;4.43;;;4.03;;
39982;SDS011;25670;44.782;10.356;2023-12-20T00:08:57;4.43;;;4.03;;
39982;SDS011;25670;44.782;10.356;2023-12-20T00:11:24;4.93;;;4.43;;
39982;SDS011;25670;44.782;10.356;2023-12-20T00:13:50;5.45;;;4.07;;
39982;SDS011;25670;44.782;10.356;2023-12-20T00:16:17;11.05;;;3.90;;
39982;SDS011;25670;44.782;10.356;2023-12-20T00:18:43;4.72;;;3.85;;
39982;SDS011;25670;44.782;10.356;2023-12-20T00:21:09;11.13;;;4.55;;
39982;SDS011;25670;44.782;10.356;2023-12-20T00:23:37;4.15;;;3.60;;
39982;SDS011;25670;44.782;10.356;2023-12-20T00:26:03;11.88;;;3.92;;
39982;SDS011;25670;44.782;10.356;2023-12-20T00:28:30;4.43;;;3.28;;
39982;SDS011;25670;44.782;10.356;2023-12-20T00:30:56;4.85;;;3.67;;
39982;SDS011;25670;44.782;10.356;2023-12-20T00:33:22;4.40;;;3.90;;
39982;SDS011;25670;44.782;10.356;2023-12-20T00:35:48;5.28;;;4.18;;
39982;SDS011;25670;44.782;10.356;2023-12-20T00:38:14;5.93;;;3.92;;
39982;SDS011;25670;44.782;10.356;2023-12-20T00:40:41;7.00;;;3.28;;
39982;SDS011;25670;44.782;10.356;2023-12-20T00:43:07;4.15;;;3.08;;
39982;SDS011;25670;44.782;10.356;2023-12-20T00:45:33;4.75;;;3.00;;
39982;SDS011;25670;44.782;10.356;2023-12-20T00:47:59;3.50;;;3.20;;
39982;SDS011;25670;44.782;10.356;2023-12-20T00:50:25;3.92;;;3.53;;
39982;SDS011;25670;44.782;10.356;2023-12-20T00:52:52;4.50;;;3.65;;
39982;SDS011;25670;44.782;10.356;2023-12-20T00:55:20;3.95;;;3.65;;
39982;SDS011;25670;44.782;10.356;2023-12-20T00:57:46;4.30;;;3.90;;
39982;SDS011;25670;44.782;10.356;2023-12-20T01:00:12;5.05;;;3.80;;
39982;SDS011;25670;44.782;10.356;2023-12-20T01:02:39;3.60;;;3.30;;
39982;SDS011;25670;44.782;10.356;2023-12-20T01:05:06;5.78;;;3.50;;
39982;SDS011;25670;44.782;10.356;2023-12-20T01:07:33;8.45;;;4.20;;
39982;SDS011;25670;44.782;10.356;2023-12-20T01:09:59;6.50;;;3.38;;
39982;SDS011;25670;44.782;10.356;2023-12-20T01:12:25;4.70;;;3.95;;
39982;SDS011;25670;44.782;10.356;2023-12-20T01:14:52;4.32;;;3.60;;
39982;SDS011;25670;44.782;10.356;2023-12-20T01:17:18;8.48;;;4.05;;
39982;SDS011;25670;44.782;10.356;2023-12-20T01:19:44;3.15;;;2.85;;
39982;SDS011;25670;44.782;10.356;2023-12-20T01:22:10;3.47;;;3.17;;
39982;SDS011;25670;44.782;10.356;2023-12-20T01:24:36;3.50;;;3.20;;
39982;SDS011;25670;44.782;10.356;2023-12-20T01:27:03;4.88;;;3.55;;
39982;SDS011;25670;44.782;10.356;2023-12-20T01:29:29;4.03;;;3.22;;
39982;SDS011;25670;44.782;10.356;2023-12-20T01:31:55;3.53;;;3.05;;
39982;SDS011;25670;44.782;10.356;2023-12-20T01:34:21;3.92;;;3.33;;
39982;SDS011;25670;44.782;10.356;2023-12-20T01:36:48;4.63;;;3.70;;
39982;SDS011;25670;44.782;10.356;2023-12-20T01:39:14;3.95;;;3.65;;
39982;SDS011;25670;44.782;10.356;2023-12-20T01:41:40;4.75;;;3.92;;
39982;SDS011;25670;44.782;10.356;2023-12-20T01:44:06;4.70;;;3.60;;
39982;SDS011;25670;44.782;10.356;2023-12-20T01:46:33;4.55;;;3.90;;
39982;SDS011;25670;44.782;10.356;2023-12-20T01:48:59;4.90;;;4.38;;
39982;SDS011;25670;44.782;10.356;2023-12-20T01:51:25;3.97;;;3.58;;
39982;SDS011;25670;44.782;10.356;2023-12-20T01:53:53;8.13;;;3.35;;
39982;SDS011;25670;44.782;10.356;2023-12-20T01:56:24;10.27;;;4.13;;
39982;SDS011;25670;44.782;10.356;2023-12-20T01:58:52;4.63;;;4.25;;
39982;SDS011;25670;44.782;10.356;2023-12-20T02:01:18;3.88;;;3.47;;
39982;SDS011;25670;44.782;10.356;2023-12-20T02:03:45;5.13;;;3.58;;
39982;SDS011;25670;44.782;10.356;2023-12-20T02:06:12;3.90;;;3.40;;
39982;SDS011;25670;44.782;10.356;2023-12-20T02:08:38;3.10;;;2.90;;
39982;SDS011;25670;44.782;10.356;2023-12-20T02:11:07;6.22;;;3.67;;
39982;SDS011;25670;44.782;10.356;2023-12-20T02:13:33;4.10;;;3.70;;
39982;SDS011;25670;44.782;10.356;2023-12-20T02:16:00;8.38;;;3.17;;
39982;SDS011;25670;44.782;10.356;2023-12-20T02:18:26;3.75;;;3.45;;
39982;SDS011;25670;44.782;10.356;2023-12-20T02:20:52;4.28;;;3.42;;
39982;SDS011;25670;44.782;10.356;2023-12-20T02:23:19;3.95;;;3.35;;
39982;SDS011;25670;44.782;10.356;2023-12-20T02:25:46;3.55;;;3.17;;
39982;SDS011;25670;44.782;10.356;2023-12-20T02:28:12;5.80;;;3.67;;
39982;SDS011;25670;44.782;10.356;2023-12-20T02:30:38;5.75;;;3.83;;
39982;SDS011;25670;44.782;10.356;2023-12-20T02:33:07;5.93;;;4.03;;
39982;SDS011;25670;44.782;10.356;2023-12-20T02:35:36;4.13;;;3.28;;
39982;SDS011;25670;44.782;10.356;2023-12-20T02:38:02;7.18;;;3.08;;
39982;SDS011;25670;44.782;10.356;2023-12-20T02:40:28;8.15;;;3.05;;
39982;SDS011;25670;44.782;10.356;2023-12-20T02:42:54;3.53;;;3.22;;
39982;SDS011;25670;44.782;10.356;2023-12-20T02:45:21;3.95;;;3.58;;
39982;SDS011;25670;44.782;10.356;2023-12-20T02:47:47;4.65;;;3.30;;
39982;SDS011;25670;44.782;10.356;2023-12-20T02:50:13;5.55;;;3.55;;
39982;SDS011;25670;44.782;10.356;2023-12-20T02:52:39;3.65;;;3.22;;
39982;SDS011;25670;44.782;10.356;2023-12-20T02:55:05;7.55;;;3.42;;
39982;SDS011;25670;44.782;10.356;2023-12-20T02:57:32;4.38;;;3.88;;
39982;SDS011;25670;44.782;10.356;2023-12-20T02:59:59;3.72;;;3.38;;
39982;SDS011;25670;44.782;10.356;2023-12-20T03:02:25;7.70;;;3.88;;
39982;SDS011;25670;44.782;10.356;2023-12-20T03:04:51;4.05;;;3.75;;
39982;SDS011;25670;44.782;10.356;2023-12-20T03:07:17;6.05;;;3.50;;
39982;SDS011;25670;44.782;10.356;2023-12-20T03:09:43;4.70;;;3.40;;
39982;SDS011;25670;44.782;10.356;2023-12-20T03:12:10;3.55;;;3.25;;
39982;SDS011;25670;44.782;10.356;2023-12-20T03:14:36;6.03;;;3.42;;
39982;SDS011;25670;44.782;10.356;2023-12-20T03:17:03;4.65;;;3.85;;
39982;SDS011;25670;44.782;10.356;2023-12-20T03:19:29;7.65;;;3.50;;
39982;SDS011;25670;44.782;10.356;2023-12-20T03:21:55;5.57;;;4.70;;
39982;SDS011;25670;44.782;10.356;2023-12-20T03:24:22;3.78;;;3.42;;
39982;SDS011;25670;44.782;10.356;2023-12-20T03:26:48;6.03;;;3.65;;
39982;SDS011;25670;44.782;10.356;2023-12-20T03:29:14;3.72;;;3.40;;
39982;SDS011;25670;44.782;10.356;2023-12-20T03:31:40;5.55;;;3.85;;
39982;SDS011;25670;44.782;10.356;2023-12-20T03:34:06;4.07;;;3.60;;
39982;SDS011;25670;44.782;10.356;2023-12-20T03:36:33;3.97;;;3.58;;
39982;SDS011;25670;44.782;10.356;2023-12-20T03:38:59;4.85;;;4.00;;
39982;SDS011;25670;44.782;10.356;2023-12-20T03:41:25;6.13;;;3.38;;
39982;SDS011;25670;44.782;10.356;2023-12-20T03:43:51;10.32;;;3.42;;
39982;SDS011;25670;44.782;10.356;2023-12-20T03:46:18;6.00;;;3.50;;
39982;SDS011;25670;44.782;10.356;2023-12-20T03:48:44;3.88;;;2.80;;
39982;SDS011;25670;44.782;10.356;2023-12-20T03:51:11;4.53;;;3.40;;
39982;SDS011;25670;44.782;10.356;2023-12-20T03:53:37;3.47;;;3.17;;
39982;SDS011;25670;44.782;10.356;2023-12-20T03:56:05;4.10;;;3.70;;
39982;SDS011;25670;44.782;10.356;2023-12-20T03:58:31;6.70;;;3.95;;
39982;SDS011;25670;44.782;10.356;2023-12-20T04:00:57;3.88;;;3.58;;
39982;SDS011;25670;44.782;10.356;2023-12-20T04:03:23;5.80;;;3.90;;
39982;SDS011;25670;44.782;10.356;2023-12-20T04:05:50;6.40;;;3.88;;
39982;SDS011;25670;44.782;10.356;2023-12-20T04:08:16;7.35;;;4.88;;
39982;SDS011;25670;44.782;10.356;2023-12-20T04:10:42;8.98;;;4.45;;
39982;SDS011;25670;44.782;10.356;2023-12-20T04:13:08;6.10;;;5.13;;
39982;SDS011;25670;44.782;10.356;2023-12-20T04:15:34;6.97;;;5.22;;
39982;SDS011;25670;44.782;10.356;2023-12-20T04:18:00;7.38;;;5.03;;
39982;SDS011;25670;44.782;10.356;2023-12-20T04:20:26;7.68;;;5.45;;
39982;SDS011;25670;44.782;10.356;2023-12-20T04:22:53;5.95;;;5.45;;
39982;SDS011;25670;44.782;10.356;2023-12-20T04:25:19;5.88;;;5.25;;
39982;SDS011;25670;44.782;10.356;2023-12-20T04:27:45;7.32;;;5.60;;
39982;SDS011;25670;44.782;10.356;2023-12-20T04:30:11;7.78;;;6.40;;
39982;SDS011;25670;44.782;10.356;2023-12-20T04:32:39;8.50;;;6.78;;
39982;SDS011;25670;44.782;10.356;2023-12-20T04:35:05;10.38;;;6.18;;
39982;SDS011;25670;44.782;10.356;2023-12-20T04:37:31;6.93;;;6.07;;
39982;SDS011;25670;44.782;10.356;2023-12-20T04:39:57;6.20;;;5.60;;
39982;SDS011;25670;44.782;10.356;2023-12-20T04:42:23;5.68;;;5.18;;
39982;SDS011;25670;44.782;10.356;2023-12-20T04:44:50;6.40;;;5.05;;
39982;SDS011;25670;44.782;10.356;2023-12-20T04:47:16;12.52;;;6.55;;
39982;SDS011;25670;44.782;10.356;2023-12-20T04:49:42;7.85;;;6.25;;
39982;SDS011;25670;44.782;10.356;2023-12-20T04:52:08;5.82;;;5.32;;
39982;SDS011;25670;44.782;10.356;2023-12-20T04:54:34;5.03;;;4.63;;
39982;SDS011;25670;44.782;10.356;2023-12-20T04:57:00;9.40;;;5.65;;
39982;SDS011;25670;44.782;10.356;2023-12-20T04:59:27;6.50;;;5.90;;
39982;SDS011;25670;44.782;10.356;2023-12-20T05:01:53;9.73;;;5.28;;
39982;SDS011;25670;44.782;10.356;2023-12-20T05:04:19;5.85;;;5.03;;
39982;SDS011;25670;44.782;10.356;2023-12-20T05:06:46;10.98;;;5.78;;
39982;SDS011;25670;44.782;10.356;2023-12-20T05:09:12;9.35;;;6.65;;
39982;SDS011;25670;44.782;10.356;2023-12-20T05:11:38;7.53;;;5.88;;
39982;SDS011;25670;44.782;10.356;2023-12-20T05:14:04;6.75;;;6.13;;
39982;SDS011;25670;44.782;10.356;2023-12-20T05:16:30;11.52;;;7.40;;
39982;SDS011;25670;44.782;10.356;2023-12-20T05:18:57;9.63;;;8.38;;
39982;SDS011;25670;44.782;10.356;2023-12-20T05:21:24;12.32;;;8.30;;
39982;SDS011;25670;44.782;10.356;2023-12-20T05:23:50;11.82;;;8.07;;
39982;SDS011;25670;44.782;10.356;2023-12-20T05:26:16;10.00;;;7.20;;
39982;SDS011;25670;44.782;10.356;2023-12-20T05:28:42;13.50;;;8.80;;
39982;SDS011;25670;44.782;10.356;2023-12-20T05:31:08;19.25;;;6.53;;
39982;SDS011;25670;44.782;10.356;2023-12-20T05:33:34;8.38;;;7.03;;
39982;SDS011;25670;44.782;10.356;2023-12-20T05:36:00;6.90;;;6.22;;
39982;SDS011;25670;44.782;10.356;2023-12-20T05:38:27;11.07;;;6.13;;
39982;SDS011;25670;44.782;10.356;2023-12-20T05:40:53;6.63;;;5.82;;
39982;SDS011;25670;44.782;10.356;2023-12-20T05:43:19;6.88;;;6.18;;
39982;SDS011;25670;44.782;10.356;2023-12-20T05:45:45;12.68;;;6.55;;
39982;SDS011;25670;44.782;10.356;2023-12-20T05:48:11;8.73;;;5.88;;
39982;SDS011;25670;44.782;10.356;2023-12-20T05:50:37;6.88;;;5.47;;
39982;SDS011;25670;44.782;10.356;2023-12-20T05:53:04;11.73;;;5.82;;
39982;SDS011;25670;44.782;10.356;2023-12-20T05:55:31;6.45;;;5.85;;
39982;SDS011;25670;44.782;10.356;2023-12-20T05:57:57;10.07;;;6.10;;
39982;SDS011;25670;44.782;10.356;2023-12-20T06:00:23;12.00;;;6.85;;
39982;SDS011;25670;44.782;10.356;2023-12-20T06:02:49;7.85;;;6.00;;
39982;SDS011;25670;44.782;10.356;2023-12-20T06:05:15;5.45;;;4.95;;
39982;SDS011;25670;44.782;10.356;2023-12-20T06:07:41;9.98;;;6.05;;
39982;SDS011;25670;44.782;10.356;2023-12-20T06:10:08;14.00;;;6.15;;
39982;SDS011;25670;44.782;10.356;2023-12-20T06:12:34;6.68;;;5.78;;
39982;SDS011;25670;44.782;10.356;2023-12-20T06:15:02;6.40;;;5.68;;
39982;SDS011;25670;44.782;10.356;2023-12-20T06:17:28;11.07;;;6.32;;
39982;SDS011;25670;44.782;10.356;2023-12-20T06:19:56;7.90;;;5.75;;
39982;SDS011;25670;44.782;10.356;2023-12-20T06:22:22;7.38;;;6.38;;
39982;SDS011;25670;44.782;10.356;2023-12-20T06:24:49;6.53;;;5.93;;
39982;SDS011;25670;44.782;10.356;2023-12-20T06:27:15;6.53;;;5.90;;
39982;SDS011;25670;44.782;10.356;2023-12-20T06:29:41;12.88;;;8.82;;
39982;SDS011;25670;44.782;10.356;2023-12-20T06:32:09;10.73;;;6.75;;
39982;SDS011;25670;44.782;10.356;2023-12-20T06:34:36;10.93;;;6.57;;
39982;SDS011;25670;44.782;10.356;2023-12-20T06:37:03;6.57;;;5.90;;
39982;SDS011;25670;44.782;10.356;2023-12-20T06:39:30;10.90;;;6.85;;
39982;SDS011;25670;44.782;10.356;2023-12-20T06:41:57;9.98;;;6.47;;
39982;SDS011;25670;44.782;10.356;2023-12-20T06:44:23;6.72;;;6.13;;
39982;SDS011;25670;44.782;10.356;2023-12-20T06:46:49;10.40;;;7.13;;
39982;SDS011;25670;44.782;10.356;2023-12-20T06:49:15;12.10;;;7.57;;
39982;SDS011;25670;44.782;10.356;2023-12-20T06:51:42;9.48;;;6.13;;
39982;SDS011;25670;44.782;10.356;2023-12-20T06:54:08;10.27;;;6.20;;
39982;SDS011;25670;44.782;10.356;2023-12-20T06:56:34;10.93;;;7.07;;
39982;SDS011;25670;44.782;10.356;2023-12-20T06:59:01;8.80;;;7.15;;
39982;SDS011;25670;44.782;10.356;2023-12-20T07:01:27;9.15;;;7.28;;
39982;SDS011;25670;44.782;10.356;2023-12-20T07:03:53;9.35;;;7.07;;
39982;SDS011;25670;44.782;10.356;2023-12-20T07:06:20;9.93;;;7.22;;
39982;SDS011;25670;44.782;10.356;2023-12-20T07:08:46;8.75;;;6.63;;
39982;SDS011;25670;44.782;10.356;2023-12-20T07:11:12;10.60;;;7.60;;
39982;SDS011;25670;44.782;10.356;2023-12-20T07:13:38;9.00;;;6.53;;
39982;SDS011;25670;44.782;10.356;2023-12-20T07:16:05;16.13;;;6.90;;
39982;SDS011;25670;44.782;10.356;2023-12-20T07:18:31;12.88;;;7.13;;
39982;SDS011;25670;44.782;10.356;2023-12-20T07:20:57;8.88;;;6.68;;
39982;SDS011;25670;44.782;10.356;2023-12-20T07:23:23;7.45;;;6.20;;
39982;SDS011;25670;44.782;10.356;2023-12-20T07:25:51;20.08;;;8.40;;
39982;SDS011;25670;44.782;10.356;2023-12-20T07:28:17;12.48;;;7.20;;
39982;SDS011;25670;44.782;10.356;2023-12-20T07:30:43;12.70;;;6.70;;
39982;SDS011;25670;44.782;10.356;2023-12-20T07:33:09;10.77;;;7.78;;
39982;SDS011;25670;44.782;10.356;2023-12-20T07:35:37;11.82;;;7.78;;
39982;SDS011;25670;44.782;10.356;2023-12-20T07:38:04;27.30;;;7.78;;
39982;SDS011;25670;44.782;10.356;2023-12-20T07:40:30;24.23;;;7.97;;
39982;SDS011;25670;44.782;10.356;2023-12-20T07:42:56;17.70;;;8.82;;
39982;SDS011;25670;44.782;10.356;2023-12-20T07:45:23;19.35;;;7.85;;
39982;SDS011;25670;44.782;10.356;2023-12-20T07:47:49;15.48;;;7.45;;
39982;SDS011;25670;44.782;10.356;2023-12-20T07:50:16;16.52;;;8.05;;
39982;SDS011;25670;44.782;10.356;2023-12-20T07:52:42;14.90;;;8.50;;
39982;SDS011;25670;44.782;10.356;2023-12-20T07:55:08;21.02;;;8.70;;
39982;SDS011;25670;44.782;10.356;2023-12-20T07:57:34;17.73;;;8.07;;
39982;SDS011;25670;44.782;10.356;2023-12-20T08:00:00;13.82;;;7.32;;
39982;SDS011;25670;44.782;10.356;2023-12-20T08:02:30;18.00;;;7.32;;
39982;SDS011;25670;44.782;10.356;2023-12-20T08:04:56;21.38;;;8.27;;
39982;SDS011;25670;44.782;10.356;2023-12-20T08:07:22;20.95;;;6.82;;
39982;SDS011;25670;44.782;10.356;2023-12-20T08:09:48;21.42;;;7.38;;
39982;SDS011;25670;44.782;10.356;2023-12-20T08:12:14;17.33;;;6.65;;
39982;SDS011;25670;44.782;10.356;2023-12-20T08:14:42;25.50;;;6.85;;
39982;SDS011;25670;44.782;10.356;2023-12-20T08:17:08;27.95;;;6.75;;
39982;SDS011;25670;44.782;10.356;2023-12-20T08:19:34;13.40;;;6.75;;
39982;SDS011;25670;44.782;10.356;2023-12-20T08:22:00;13.07;;;6.55;;
39982;SDS011;25670;44.782;10.356;2023-12-20T08:24:27;18.15;;;6.22;;
39982;SDS011;25670;44.782;10.356;2023-12-20T08:26:53;9.77;;;6.50;;
39982;SDS011;25670;44.782;10.356;2023-12-20T08:29:19;9.90;;;5.90;;
39982;SDS011;25670;44.782;10.356;2023-12-20T08:31:46;8.27;;;7.03;;
39982;SDS011;25670;44.782;10.356;2023-12-20T08:34:18;10.20;;;6.20;;
39982;SDS011;25670;44.782;10.356;2023-12-20T08:36:44;14.65;;;7.00;;
39982;SDS011;25670;44.782;10.356;2023-12-20T08:39:10;9.80;;;5.95;;
39982;SDS011;25670;44.782;10.356;2023-12-20T08:41:36;8.93;;;7.40;;
39982;SDS011;25670;44.782;10.356;2023-12-20T08:44:02;8.65;;;6.95;;
39982;SDS011;25670;44.782;10.356;2023-12-20T08:46:29;14.82;;;7.57;;
39982;SDS011;25670;44.782;10.356;2023-12-20T08:48:55;22.23;;;7.60;;
39982;SDS011;25670;44.782;10.356;2023-12-20T08:51:21;17.02;;;8.43;;
39982;SDS011;25670;44.782;10.356;2023-12-20T08:53:49;17.70;;;8.45;;
39982;SDS011;25670;44.782;10.356;2023-12-20T08:56:15;9.55;;;7.65;;
39982;SDS011;25670;44.782;10.356;2023-12-20T08:58:42;15.90;;;8.00;;
39982;SDS011;25670;44.782;10.356;2023-12-20T09:01:08;11.50;;;7.85;;
39982;SDS011;25670;44.782;10.356;2023-12-20T09:03:34;19.10;;;8.02;;
39982;SDS011;25670;44.782;10.356;2023-12-20T09:06:00;21.85;;;8.00;;
39982;SDS011;25670;44.782;10.356;2023-12-20T09:08:27;17.95;;;7.90;;
39982;SDS011;25670;44.782;10.356;2023-12-20T09:10:53;11.88;;;7.20;;
39982;SDS011;25670;44.782;10.356;2023-12-20T09:13:19;10.13;;;7.20;;
39982;SDS011;25670;44.782;10.356;2023-12-20T09:15:46;15.95;;;7.35;;
39982;SDS011;25670;44.782;10.356;2023-12-20T09:18:12;12.45;;;8.07;;
39982;SDS011;25670;44.782;10.356;2023-12-20T09:20:38;18.33;;;8.25;;
39982;SDS011;25670;44.782;10.356;2023-12-20T09:23:04;10.13;;;7.45;;
39982;SDS011;25670;44.782;10.356;2023-12-20T09:25:30;12.98;;;8.20;;
39982;SDS011;25670;44.782;10.356;2023-12-20T09:27:56;16.75;;;7.45;;
39982;SDS011;25670;44.782;10.356;2023-12-20T09:30:23;23.73;;;7.78;;
39982;SDS011;25670;44.782;10.356;2023-12-20T09:32:49;14.60;;;7.53;;
39982;SDS011;25670;44.782;10.356;2023-12-20T09:35:15;11.68;;;7.88;;
39982;SDS011;25670;44.782;10.356;2023-12-20T09:37:42;14.38;;;8.45;;
39982;SDS011;25670;44.782;10.356;2023-12-20T09:40:10;21.25;;;8.80;;
39982;SDS011;25670;44.782;10.356;2023-12-20T09:45:21;27.48;;;9.88;;
39982;SDS011;25670;44.782;10.356;2023-12-20T09:47:48;41.53;;;14.80;;
39982;SDS011;25670;44.782;10.356;2023-12-20T09:50:19;48.63;;;17.77;;
39982;SDS011;25670;44.782;10.356;2023-12-20T09:52:49;53.10;;;17.30;;
39982;SDS011;25670;44.782;10.356;2023-12-20T09:55:17;59.20;;;16.70;;
39982;SDS011;25670;44.782;10.356;2023-12-20T09:57:45;51.90;;;15.20;;
39982;SDS011;25670;44.782;10.356;2023-12-20T10:00:14;40.70;;;12.60;;
39982;SDS011;25670;44.782;10.356;2023-12-20T10:02:59;28.42;;;10.80;;
39982;SDS011;25670;44.782;10.356;2023-12-20T10:05:30;15.10;;;9.68;;
39982;SDS011;25670;44.782;10.356;2023-12-20T10:07:57;14.65;;;9.57;;
39982;SDS011;25670;44.782;10.356;2023-12-20T10:10:24;13.75;;;9.40;;
39982;SDS011;25670;44.782;10.356;2023-12-20T10:13:04;23.58;;;10.02;;
39982;SDS011;25670;44.782;10.356;2023-12-20T10:15:32;23.90;;;10.63;;
39982;SDS011;25670;44.782;10.356;2023-12-20T10:18:02;24.63;;;10.82;;
39982;SDS011;25670;44.782;10.356;2023-12-20T10:20:29;20.05;;;10.25;;
39982;SDS011;25670;44.782;10.356;2023-12-20T10:22:57;25.33;;;10.48;;
39982;SDS011;25670;44.782;10.356;2023-12-20T10:25:24;26.25;;;10.90;;
39982;SDS011;25670;44.782;10.356;2023-12-20T10:27:50;26.50;;;10.98;;
39982;SDS011;25670;44.782;10.356;2023-12-20T10:30:44;24.38;;;10.50;;
39982;SDS011;25670;44.782;10.356;2023-12-20T10:33:10;27.80;;;10.82;;
39982;SDS011;25670;44.782;10.356;2023-12-20T10:35:39;23.02;;;10.98;;
39982;SDS011;25670;44.782;10.356;2023-12-20T10:38:06;21.42;;;10.25;;
39982;SDS011;25670;44.782;10.356;2023-12-20T10:40:35;20.80;;;10.32;;
39982;SDS011;25670;44.782;10.356;2023-12-20T10:43:02;14.43;;;9.57;;
39982;SDS011;25670;44.782;10.356;2023-12-20T10:45:29;22.48;;;10.02;;
39982;SDS011;25670;44.782;10.356;2023-12-20T10:47:55;21.50;;;10.38;;
39982;SDS011;25670;44.782;10.356;2023-12-20T10:50:24;21.80;;;10.50;;
39982;SDS011;25670;44.782;10.356;2023-12-20T10:52:52;17.83;;;9.38;;
39982;SDS011;25670;44.782;10.356;2023-12-20T10:55:24;22.33;;;11.55;;
39982;SDS011;25670;44.782;10.356;2023-12-20T10:57:51;14.35;;;10.43;;
39982;SDS011;25670;44.782;10.356;2023-12-20T11:00:18;27.55;;;10.20;;
39982;SDS011;25670;44.782;10.356;2023-12-20T11:02:46;25.98;;;11.45;;
39982;SDS011;25670;44.782;10.356;2023-12-20T11:08:09;23.52;;;11.25;;
39982;SDS011;25670;44.782;10.356;2023-12-20T11:13:32;20.80;;;10.70;;
39982;SDS011;25670;44.782;10.356;2023-12-20T11:16:03;16.83;;;10.38;;
39982;SDS011;25670;44.782;10.356;2023-12-20T11:18:30;18.63;;;9.80;;
39982;SDS011;25670;44.782;10.356;2023-12-20T11:21:04;18.08;;;10.15;;
39982;SDS011;25670;44.782;10.356;2023-12-20T11:23:31;22.27;;;11.30;;
39982;SDS011;25670;44.782;10.356;2023-12-20T11:25:59;23.42;;;10.25;;
39982;SDS011;25670;44.782;10.356;2023-12-20T11:28:28;16.58;;;9.90;;
39982;SDS011;25670;44.782;10.356;2023-12-20T11:30:58;17.50;;;9.63;;
39982;SDS011;25670;44.782;10.356;2023-12-20T11:33:27;13.85;;;9.30;;
39982;SDS011;25670;44.782;10.356;2023-12-20T11:35:56;19.42;;;10.23;;
39982;SDS011;25670;44.782;10.356;2023-12-20T11:38:25;16.77;;;9.85;;
39982;SDS011;25670;44.782;10.356;2023-12-20T11:40:53;27.60;;;9.90;;
39982;SDS011;25670;44.782;10.356;2023-12-20T11:46:04;14.98;;;9.35;;
39982;SDS011;25670;44.782;10.356;2023-12-20T11:48:31;14.27;;;10.90;;
39982;SDS011;25670;44.782;10.356;2023-12-20T11:50:59;23.30;;;9.88;;
39982;SDS011;25670;44.782;10.356;2023-12-20T11:53:25;20.83;;;8.95;;
39982;SDS011;25670;44.782;10.356;2023-12-20T11:55:52;15.90;;;9.40;;
39982;SDS011;25670;44.782;10.356;2023-12-20T11:58:20;14.73;;;10.00;;
39982;SDS011;25670;44.782;10.356;2023-12-20T12:00:48;15.15;;;9.38;;
39982;SDS011;25670;44.782;10.356;2023-12-20T12:03:15;18.33;;;10.27;;
39982;SDS011;25670;44.782;10.356;2023-12-20T12:05:41;18.23;;;10.13;;
39982;SDS011;25670;44.782;10.356;2023-12-20T12:08:08;14.85;;;9.23;;
39982;SDS011;25670;44.782;10.356;2023-12-20T12:10:34;25.15;;;9.68;;
39982;SDS011;25670;44.782;10.356;2023-12-20T12:13:00;13.48;;;9.35;;
39982;SDS011;25670;44.782;10.356;2023-12-20T12:15:26;18.92;;;9.77;;
39982;SDS011;25670;44.782;10.356;2023-12-20T12:17:56;13.95;;;10.05;;
39982;SDS011;25670;44.782;10.356;2023-12-20T12:20:23;14.95;;;10.57;;
39982;SDS011;25670;44.782;10.356;2023-12-20T12:23:07;16.48;;;9.80;;
39982;SDS011;25670;44.782;10.356;2023-12-20T12:25:37;19.65;;;9.98;;
39982;SDS011;25670;44.782;10.356;2023-12-20T12:28:03;16.75;;;9.65;;
39982;SDS011;25670;44.782;10.356;2023-12-20T12:30:30;14.55;;;9.63;;
39982;SDS011;25670;44.782;10.356;2023-12-20T12:32:56;13.13;;;10.15;;
39982;SDS011;25670;44.782;10.356;2023-12-20T12:35:23;17.95;;;10.13;;
39982;SDS011;25670;44.782;10.356;2023-12-20T12:37:50;15.02;;;10.30;;
39982;SDS011;25670;44.782;10.356;2023-12-20T12:40:17;13.68;;;10.02;;
39982;SDS011;25670;44.782;10.356;2023-12-20T12:42:44;12.60;;;9.65;;
39982;SDS011;25670;44.782;10.356;2023-12-20T12:45:10;12.85;;;8.77;;
39982;SDS011;25670;44.782;10.356;2023-12-20T12:47:37;12.98;;;8.45;;
39982;SDS011;25670;44.782;10.356;2023-12-20T12:50:04;24.23;;;10.48;;
39982;SDS011;25670;44.782;10.356;2023-12-20T12:52:30;24.75;;;10.35;;
39982;SDS011;25670;44.782;10.356;2023-12-20T12:54:57;15.65;;;9.50;;
39982;SDS011;25670;44.782;10.356;2023-12-20T12:57:23;26.98;;;9.30;;
39982;SDS011;25670;44.782;10.356;2023-12-20T12:59:49;16.40;;;9.00;;
39982;SDS011;25670;44.782;10.356;2023-12-20T13:02:15;25.13;;;9.70;;
39982;SDS011;25670;44.782;10.356;2023-12-20T13:04:42;18.67;;;9.85;;
39982;SDS011;25670;44.782;10.356;2023-12-20T13:07:08;21.70;;;10.13;;
39982;SDS011;25670;44.782;10.356;2023-12-20T13:09:38;15.60;;;9.85;;
39982;SDS011;25670;44.782;10.356;2023-12-20T13:12:05;18.15;;;9.45;;
39982;SDS011;25670;44.782;10.356;2023-12-20T13:14:33;15.70;;;9.88;;
39982;SDS011;25670;44.782;10.356;2023-12-20T13:17:03;12.18;;;9.43;;
39982;SDS011;25670;44.782;10.356;2023-12-20T13:19:29;17.70;;;9.20;;
39982;SDS011;25670;44.782;10.356;2023-12-20T13:21:56;19.35;;;10.52;;
39982;SDS011;25670;44.782;10.356;2023-12-20T13:24:23;15.15;;;10.07;;
39982;SDS011;25670;44.782;10.356;2023-12-20T13:26:49;19.17;;;9.32;;
39982;SDS011;25670;44.782;10.356;2023-12-20T13:29:16;16.67;;;10.35;;
39982;SDS011;25670;44.782;10.356;2023-12-20T13:31:42;16.08;;;9.50;;
39982;SDS011;25670;44.782;10.356;2023-12-20T13:34:08;21.20;;;11.73;;
39982;SDS011;25670;44.782;10.356;2023-12-20T13:36:37;17.92;;;11.68;;
39982;SDS011;25670;44.782;10.356;2023-12-20T13:39:03;17.80;;;10.27;;
39982;SDS011;25670;44.782;10.356;2023-12-20T13:41:30;15.60;;;10.07;;
39982;SDS011;25670;44.782;10.356;2023-12-20T13:43:57;20.00;;;11.00;;
39982;SDS011;25670;44.782;10.356;2023-12-20T13:46:23;11.95;;;8.95;;
39982;SDS011;25670;44.782;10.356;2023-12-20T13:48:50;15.25;;;10.10;;
39982;SDS011;25670;44.782;10.356;2023-12-20T13:51:16;15.35;;;10.65;;
39982;SDS011;25670;44.782;10.356;2023-12-20T13:53:42;22.77;;;11.32;;
39982;SDS011;25670;44.782;10.356;2023-12-20T13:56:08;18.92;;;11.30;;
39982;SDS011;25670;44.782;10.356;2023-12-20T13:58:34;21.98;;;11.18;;
39982;SDS011;25670;44.782;10.356;2023-12-20T14:01:01;15.00;;;10.85;;
39982;SDS011;25670;44.782;10.356;2023-12-20T14:03:27;22.02;;;10.70;;
39982;SDS011;25670;44.782;10.356;2023-12-20T14:05:53;23.80;;;12.13;;
39982;SDS011;25670;44.782;10.356;2023-12-20T14:08:20;21.58;;;11.65;;
39982;SDS011;25670;44.782;10.356;2023-12-20T14:10:46;19.92;;;11.45;;
39982;SDS011;25670;44.782;10.356;2023-12-20T14:13:12;18.77;;;11.50;;
39982;SDS011;25670;44.782;10.356;2023-12-20T14:15:38;21.00;;;10.70;;
39982;SDS011;25670;44.782;10.356;2023-12-20T14:18:05;34.22;;;10.98;;
39982;SDS011;25670;44.782;10.356;2023-12-20T14:20:33;19.70;;;11.27;;
39982;SDS011;25670;44.782;10.356;2023-12-20T14:23:00;22.23;;;10.80;;
39982;SDS011;25670;44.782;10.356;2023-12-20T14:25:27;20.35;;;11.35;;
39982;SDS011;25670;44.782;10.356;2023-12-20T14:27:53;16.40;;;10.60;;
39982;SDS011;25670;44.782;10.356;2023-12-20T14:30:19;16.35;;;10.23;;
39982;SDS011;25670;44.782;10.356;2023-12-20T14:32:46;19.05;;;10.57;;